sensor_id;sensor_type;location;lat;lon;timestamp;P1;durP1;ratioP1;P2;durP2;ratioP2
15451;SDS011;7827;53.594;9.938;2022-10-17T00:01:09;8.93;;;5.28;;
15451;SDS011;7827;53.594;9.938;2022-10-17T00:03:39;7.47;;;5.05;;
15451;SDS011;7827;53.594;9.938;2022-10-17T00:06:09;10.32;;;5.88;;
15451;SDS011;7827;53.594;9.938;2022-10-17T00:08:41;8.63;;;5.07;;
15451;SDS011;7827;53.594;9.938;2022-10-17T00:11:12;10.27;;;5.00;;
15451;SDS011;7827;53.594;9.938;2022-10-17T00:13:43;12.75;;;5.32;;
15451;SDS011;7827;53.594;9.938;2022-10-17T00:16:13;8.73;;;5.18;;
15451;SDS011;7827;53.594;9.938;2022-10-17T00:18:48;8.80;;;5.22;;
15451;SDS011;7827;53.594;9.938;2022-10-17T00:21:18;9.05;;;4.95;;
15451;SDS011;7827;53.594;9.938;2022-10-17T00:23:47;9.90;;;5.53;;
15451;SDS011;7827;53.594;9.938;2022-10-17T00:26:16;8.45;;;5.30;;
15451;SDS011;7827;53.594;9.938;2022-10-17T00:28:44;8.32;;;4.85;;
15451;SDS011;7827;53.594;9.938;2022-10-17T00:31:14;9.13;;;4.95;;
15451;SDS011;7827;53.594;9.938;2022-10-17T00:33:44;8.85;;;5.22;;
15451;SDS011;7827;53.594;9.938;2022-10-17T00:36:15;13.77;;;5.53;;
15451;SDS011;7827;53.594;9.938;2022-10-17T00:38:48;10.82;;;5.70;;
15451;SDS011;7827;53.594;9.938;2022-10-17T00:41:20;15.88;;;6.07;;
15451;SDS011;7827;53.594;9.938;2022-10-17T00:43:52;9.35;;;5.57;;
15451;SDS011;7827;53.594;9.938;2022-10-17T00:46:26;9.13;;;5.50;;
15451;SDS011;7827;53.594;9.938;2022-10-17T00:48:57;13.48;;;5.95;;
15451;SDS011;7827;53.594;9.938;2022-10-17T00:51:33;12.48;;;5.93;;
15451;SDS011;7827;53.594;9.938;2022-10-17T00:54:07;10.88;;;5.70;;
15451;SDS011;7827;53.594;9.938;2022-10-17T00:56:37;11.43;;;5.90;;
15451;SDS011;7827;53.594;9.938;2022-10-17T00:59:06;11.27;;;6.10;;
15451;SDS011;7827;53.594;9.938;2022-10-17T01:01:38;10.68;;;5.70;;
15451;SDS011;7827;53.594;9.938;2022-10-17T01:04:08;7.35;;;5.63;;
15451;SDS011;7827;53.594;9.938;2022-10-17T01:06:39;8.80;;;5.75;;
15451;SDS011;7827;53.594;9.938;2022-10-17T01:09:07;12.88;;;5.65;;
15451;SDS011;7827;53.594;9.938;2022-10-17T01:11:37;8.35;;;5.95;;
15451;SDS011;7827;53.594;9.938;2022-10-17T01:14:18;12.18;;;6.97;;
15451;SDS011;7827;53.594;9.938;2022-10-17T01:16:57;7.68;;;5.85;;
15451;SDS011;7827;53.594;9.938;2022-10-17T01:19:40;11.63;;;6.25;;
15451;SDS011;7827;53.594;9.938;2022-10-17T01:22:37;8.00;;;6.40;;
15451;SDS011;7827;53.594;9.938;2022-10-17T01:25:18;14.80;;;5.90;;
15451;SDS011;7827;53.594;9.938;2022-10-17T01:28:05;12.68;;;6.55;;
15451;SDS011;7827;53.594;9.938;2022-10-17T01:30:56;8.65;;;5.90;;
15451;SDS011;7827;53.594;9.938;2022-10-17T01:33:37;10.77;;;6.47;;
15451;SDS011;7827;53.594;9.938;2022-10-17T01:36:18;9.10;;;5.97;;
15451;SDS011;7827;53.594;9.938;2022-10-17T01:39:06;9.35;;;6.25;;
15451;SDS011;7827;53.594;9.938;2022-10-17T01:41:46;8.45;;;5.25;;
15451;SDS011;7827;53.594;9.938;2022-10-17T01:44:24;9.45;;;5.53;;
15451;SDS011;7827;53.594;9.938;2022-10-17T01:47:05;9.70;;;5.40;;
15451;SDS011;7827;53.594;9.938;2022-10-17T01:49:39;9.50;;;6.00;;
15451;SDS011;7827;53.594;9.938;2022-10-17T01:52:12;12.65;;;6.00;;
15451;SDS011;7827;53.594;9.938;2022-10-17T01:54:47;10.43;;;6.35;;
15451;SDS011;7827;53.594;9.938;2022-10-17T01:57:22;11.05;;;6.05;;
15451;SDS011;7827;53.594;9.938;2022-10-17T01:59:56;6.80;;;5.13;;
15451;SDS011;7827;53.594;9.938;2022-10-17T02:02:28;12.68;;;5.22;;
15451;SDS011;7827;53.594;9.938;2022-10-17T02:04:59;8.23;;;5.88;;
15451;SDS011;7827;53.594;9.938;2022-10-17T02:07:30;12.45;;;5.88;;
15451;SDS011;7827;53.594;9.938;2022-10-17T02:09:58;11.35;;;6.30;;
15451;SDS011;7827;53.594;9.938;2022-10-17T02:12:35;12.45;;;6.75;;
15451;SDS011;7827;53.594;9.938;2022-10-17T02:15:20;8.77;;;5.50;;
15451;SDS011;7827;53.594;9.938;2022-10-17T02:18:17;8.00;;;6.00;;
15451;SDS011;7827;53.594;9.938;2022-10-17T02:21:05;6.70;;;4.60;;
15451;SDS011;7827;53.594;9.938;2022-10-17T02:23:43;12.10;;;4.75;;
15451;SDS011;7827;53.594;9.938;2022-10-17T02:26:22;9.18;;;4.63;;
15451;SDS011;7827;53.594;9.938;2022-10-17T02:29:02;8.25;;;4.97;;
15451;SDS011;7827;53.594;9.938;2022-10-17T02:31:37;12.52;;;5.03;;
15451;SDS011;7827;53.594;9.938;2022-10-17T02:34:13;9.90;;;5.30;;
15451;SDS011;7827;53.594;9.938;2022-10-17T02:36:47;8.40;;;4.45;;
15451;SDS011;7827;53.594;9.938;2022-10-17T02:39:21;11.90;;;5.63;;
15451;SDS011;7827;53.594;9.938;2022-10-17T02:41:55;8.02;;;4.95;;
15451;SDS011;7827;53.594;9.938;2022-10-17T02:44:27;8.27;;;4.47;;
15451;SDS011;7827;53.594;9.938;2022-10-17T02:46:58;10.43;;;5.40;;
15451;SDS011;7827;53.594;9.938;2022-10-17T02:49:37;7.35;;;4.63;;
15451;SDS011;7827;53.594;9.938;2022-10-17T02:52:13;5.80;;;4.40;;
15451;SDS011;7827;53.594;9.938;2022-10-17T02:54:50;7.82;;;4.50;;
15451;SDS011;7827;53.594;9.938;2022-10-17T02:57:24;8.10;;;5.95;;
15451;SDS011;7827;53.594;9.938;2022-10-17T02:59:59;6.65;;;4.25;;
15451;SDS011;7827;53.594;9.938;2022-10-17T03:02:36;5.60;;;3.97;;
15451;SDS011;7827;53.594;9.938;2022-10-17T03:05:09;6.32;;;4.18;;
15451;SDS011;7827;53.594;9.938;2022-10-17T03:07:43;8.55;;;4.32;;
15451;SDS011;7827;53.594;9.938;2022-10-17T03:10:11;5.68;;;4.10;;
15451;SDS011;7827;53.594;9.938;2022-10-17T03:12:40;7.80;;;4.90;;
15451;SDS011;7827;53.594;9.938;2022-10-17T03:15:09;5.70;;;3.97;;
15451;SDS011;7827;53.594;9.938;2022-10-17T03:17:39;5.30;;;4.35;;
15451;SDS011;7827;53.594;9.938;2022-10-17T03:20:09;5.75;;;4.32;;
15451;SDS011;7827;53.594;9.938;2022-10-17T03:22:38;6.13;;;4.53;;
15451;SDS011;7827;53.594;9.938;2022-10-17T03:25:08;6.72;;;4.28;;
15451;SDS011;7827;53.594;9.938;2022-10-17T03:27:36;7.78;;;4.30;;
15451;SDS011;7827;53.594;9.938;2022-10-17T03:30:05;11.05;;;5.28;;
15451;SDS011;7827;53.594;9.938;2022-10-17T03:32:35;7.47;;;4.38;;
15451;SDS011;7827;53.594;9.938;2022-10-17T03:35:04;8.18;;;4.13;;
15451;SDS011;7827;53.594;9.938;2022-10-17T03:37:39;8.90;;;4.00;;
15451;SDS011;7827;53.594;9.938;2022-10-17T03:40:07;6.60;;;4.00;;
15451;SDS011;7827;53.594;9.938;2022-10-17T03:42:36;6.88;;;4.30;;
15451;SDS011;7827;53.594;9.938;2022-10-17T03:45:05;7.45;;;4.13;;
15451;SDS011;7827;53.594;9.938;2022-10-17T03:47:34;5.50;;;4.15;;
15451;SDS011;7827;53.594;9.938;2022-10-17T03:50:03;6.28;;;4.15;;
15451;SDS011;7827;53.594;9.938;2022-10-17T03:52:35;5.57;;;4.15;;
15451;SDS011;7827;53.594;9.938;2022-10-17T03:55:05;5.15;;;4.20;;
15451;SDS011;7827;53.594;9.938;2022-10-17T03:57:34;6.32;;;4.05;;
15451;SDS011;7827;53.594;9.938;2022-10-17T04:00:09;5.70;;;4.05;;
15451;SDS011;7827;53.594;9.938;2022-10-17T04:02:41;6.97;;;3.90;;
15451;SDS011;7827;53.594;9.938;2022-10-17T04:05:16;7.82;;;4.03;;
15451;SDS011;7827;53.594;9.938;2022-10-17T04:07:45;6.28;;;3.80;;
15451;SDS011;7827;53.594;9.938;2022-10-17T04:10:16;6.80;;;3.92;;
15451;SDS011;7827;53.594;9.938;2022-10-17T04:12:45;6.55;;;3.95;;
15451;SDS011;7827;53.594;9.938;2022-10-17T04:15:13;5.70;;;4.07;;
15451;SDS011;7827;53.594;9.938;2022-10-17T04:17:43;4.97;;;3.95;;
15451;SDS011;7827;53.594;9.938;2022-10-17T04:20:14;5.35;;;4.55;;
15451;SDS011;7827;53.594;9.938;2022-10-17T04:22:42;6.30;;;4.10;;
15451;SDS011;7827;53.594;9.938;2022-10-17T04:25:11;6.97;;;3.92;;
15451;SDS011;7827;53.594;9.938;2022-10-17T04:27:44;5.68;;;3.75;;
15451;SDS011;7827;53.594;9.938;2022-10-17T04:30:14;6.13;;;4.10;;
15451;SDS011;7827;53.594;9.938;2022-10-17T04:32:44;4.88;;;3.63;;
15451;SDS011;7827;53.594;9.938;2022-10-17T04:35:18;5.40;;;4.07;;
15451;SDS011;7827;53.594;9.938;2022-10-17T04:37:52;7.65;;;4.40;;
15451;SDS011;7827;53.594;9.938;2022-10-17T04:40:20;5.03;;;4.22;;
15451;SDS011;7827;53.594;9.938;2022-10-17T04:42:52;5.65;;;4.18;;
15451;SDS011;7827;53.594;9.938;2022-10-17T04:45:27;6.25;;;4.10;;
15451;SDS011;7827;53.594;9.938;2022-10-17T04:47:59;6.10;;;3.80;;
15451;SDS011;7827;53.594;9.938;2022-10-17T04:50:27;4.57;;;3.80;;
15451;SDS011;7827;53.594;9.938;2022-10-17T04:53:16;5.00;;;4.28;;
15451;SDS011;7827;53.594;9.938;2022-10-17T04:55:46;6.55;;;3.83;;
15451;SDS011;7827;53.594;9.938;2022-10-17T04:58:16;9.15;;;3.40;;
15451;SDS011;7827;53.594;9.938;2022-10-17T05:00:45;3.67;;;3.38;;
15451;SDS011;7827;53.594;9.938;2022-10-17T05:03:19;5.43;;;3.72;;
15451;SDS011;7827;53.594;9.938;2022-10-17T05:05:47;8.77;;;3.88;;
15451;SDS011;7827;53.594;9.938;2022-10-17T05:08:16;4.25;;;3.20;;
15451;SDS011;7827;53.594;9.938;2022-10-17T05:10:44;6.65;;;4.13;;
15451;SDS011;7827;53.594;9.938;2022-10-17T05:13:13;3.80;;;3.50;;
15451;SDS011;7827;53.594;9.938;2022-10-17T05:15:43;6.45;;;3.78;;
15451;SDS011;7827;53.594;9.938;2022-10-17T05:18:11;9.88;;;3.67;;
15451;SDS011;7827;53.594;9.938;2022-10-17T05:20:42;5.38;;;3.67;;
15451;SDS011;7827;53.594;9.938;2022-10-17T05:23:10;3.70;;;3.35;;
15451;SDS011;7827;53.594;9.938;2022-10-17T05:25:41;7.45;;;4.38;;
15451;SDS011;7827;53.594;9.938;2022-10-17T05:28:10;5.85;;;3.55;;
15451;SDS011;7827;53.594;9.938;2022-10-17T05:30:41;3.88;;;3.30;;
15451;SDS011;7827;53.594;9.938;2022-10-17T05:33:10;5.85;;;3.67;;
15451;SDS011;7827;53.594;9.938;2022-10-17T05:35:38;4.97;;;3.78;;
15451;SDS011;7827;53.594;9.938;2022-10-17T05:38:07;5.07;;;3.20;;
15451;SDS011;7827;53.594;9.938;2022-10-17T05:40:37;3.90;;;3.30;;
15451;SDS011;7827;53.594;9.938;2022-10-17T05:43:05;4.47;;;3.80;;
15451;SDS011;7827;53.594;9.938;2022-10-17T05:45:34;5.32;;;3.80;;
15451;SDS011;7827;53.594;9.938;2022-10-17T05:48:05;6.30;;;4.00;;
15451;SDS011;7827;53.594;9.938;2022-10-17T05:50:34;4.82;;;3.70;;
15451;SDS011;7827;53.594;9.938;2022-10-17T05:53:10;4.32;;;3.70;;
15451;SDS011;7827;53.594;9.938;2022-10-17T05:55:43;7.38;;;3.85;;
15451;SDS011;7827;53.594;9.938;2022-10-17T05:58:11;4.25;;;3.80;;
15451;SDS011;7827;53.594;9.938;2022-10-17T06:00:56;6.63;;;4.43;;
15451;SDS011;7827;53.594;9.938;2022-10-17T06:03:27;5.22;;;4.28;;
15451;SDS011;7827;53.594;9.938;2022-10-17T06:06:01;7.43;;;4.43;;
15451;SDS011;7827;53.594;9.938;2022-10-17T06:08:31;4.13;;;3.78;;
15451;SDS011;7827;53.594;9.938;2022-10-17T06:10:59;5.13;;;3.85;;
15451;SDS011;7827;53.594;9.938;2022-10-17T06:13:34;5.55;;;4.32;;
15451;SDS011;7827;53.594;9.938;2022-10-17T06:16:09;4.93;;;4.38;;
15451;SDS011;7827;53.594;9.938;2022-10-17T06:18:38;6.43;;;4.18;;
15451;SDS011;7827;53.594;9.938;2022-10-17T06:21:08;6.63;;;3.92;;
15451;SDS011;7827;53.594;9.938;2022-10-17T06:23:42;6.55;;;4.05;;
15451;SDS011;7827;53.594;9.938;2022-10-17T06:26:33;6.63;;;4.43;;
15451;SDS011;7827;53.594;9.938;2022-10-17T06:29:01;8.50;;;4.38;;
15451;SDS011;7827;53.594;9.938;2022-10-17T06:31:34;5.47;;;4.10;;
15451;SDS011;7827;53.594;9.938;2022-10-17T06:34:03;6.20;;;4.60;;
15451;SDS011;7827;53.594;9.938;2022-10-17T06:36:32;9.18;;;4.85;;
15451;SDS011;7827;53.594;9.938;2022-10-17T06:39:00;7.05;;;4.68;;
15451;SDS011;7827;53.594;9.938;2022-10-17T06:41:34;8.13;;;4.75;;
15451;SDS011;7827;53.594;9.938;2022-10-17T06:44:06;7.63;;;4.53;;
15451;SDS011;7827;53.594;9.938;2022-10-17T06:47:05;6.70;;;4.70;;
15451;SDS011;7827;53.594;9.938;2022-10-17T06:49:35;8.73;;;4.70;;
15451;SDS011;7827;53.594;9.938;2022-10-17T06:52:42;11.52;;;4.97;;
15451;SDS011;7827;53.594;9.938;2022-10-17T06:55:33;7.00;;;4.80;;
15451;SDS011;7827;53.594;9.938;2022-10-17T06:58:13;8.93;;;5.30;;
15451;SDS011;7827;53.594;9.938;2022-10-17T07:00:50;12.10;;;5.35;;
15451;SDS011;7827;53.594;9.938;2022-10-17T07:03:23;11.82;;;4.70;;
15451;SDS011;7827;53.594;9.938;2022-10-17T07:05:53;6.45;;;4.53;;
15451;SDS011;7827;53.594;9.938;2022-10-17T07:08:22;8.50;;;4.50;;
15451;SDS011;7827;53.594;9.938;2022-10-17T07:10:52;5.85;;;4.95;;
15451;SDS011;7827;53.594;9.938;2022-10-17T07:13:21;9.25;;;4.72;;
15451;SDS011;7827;53.594;9.938;2022-10-17T07:15:50;6.82;;;5.18;;
15451;SDS011;7827;53.594;9.938;2022-10-17T07:18:18;8.48;;;5.28;;
15451;SDS011;7827;53.594;9.938;2022-10-17T07:20:51;7.35;;;4.57;;
15451;SDS011;7827;53.594;9.938;2022-10-17T07:23:21;14.18;;;4.85;;
15451;SDS011;7827;53.594;9.938;2022-10-17T07:25:50;5.85;;;4.45;;
15451;SDS011;7827;53.594;9.938;2022-10-17T07:28:20;9.70;;;4.47;;
15451;SDS011;7827;53.594;9.938;2022-10-17T07:30:50;7.10;;;4.90;;
15451;SDS011;7827;53.594;9.938;2022-10-17T07:33:20;8.88;;;4.72;;
15451;SDS011;7827;53.594;9.938;2022-10-17T07:35:48;7.28;;;4.47;;
15451;SDS011;7827;53.594;9.938;2022-10-17T07:38:19;5.20;;;4.60;;
15451;SDS011;7827;53.594;9.938;2022-10-17T07:40:52;8.63;;;4.40;;
15451;SDS011;7827;53.594;9.938;2022-10-17T07:43:22;6.80;;;4.40;;
15451;SDS011;7827;53.594;9.938;2022-10-17T07:45:52;8.75;;;4.47;;
15451;SDS011;7827;53.594;9.938;2022-10-17T07:48:22;6.50;;;4.38;;
15451;SDS011;7827;53.594;9.938;2022-10-17T07:50:51;7.88;;;4.63;;
15451;SDS011;7827;53.594;9.938;2022-10-17T07:53:21;6.50;;;4.38;;
15451;SDS011;7827;53.594;9.938;2022-10-17T07:55:49;5.47;;;4.43;;
15451;SDS011;7827;53.594;9.938;2022-10-17T07:58:17;7.93;;;4.68;;
15451;SDS011;7827;53.594;9.938;2022-10-17T08:00:45;6.63;;;4.18;;
15451;SDS011;7827;53.594;9.938;2022-10-17T08:03:16;5.20;;;4.45;;
15451;SDS011;7827;53.594;9.938;2022-10-17T08:05:44;4.32;;;3.92;;
15451;SDS011;7827;53.594;9.938;2022-10-17T08:08:12;4.97;;;4.18;;
15451;SDS011;7827;53.594;9.938;2022-10-17T08:10:42;5.45;;;4.38;;
15451;SDS011;7827;53.594;9.938;2022-10-17T08:13:10;8.45;;;4.72;;
15451;SDS011;7827;53.594;9.938;2022-10-17T08:15:38;5.32;;;4.13;;
15451;SDS011;7827;53.594;9.938;2022-10-17T08:18:06;4.63;;;4.00;;
15451;SDS011;7827;53.594;9.938;2022-10-17T08:20:34;4.97;;;4.28;;
15451;SDS011;7827;53.594;9.938;2022-10-17T08:23:03;4.55;;;3.80;;
15451;SDS011;7827;53.594;9.938;2022-10-17T08:25:31;6.00;;;4.30;;
15451;SDS011;7827;53.594;9.938;2022-10-17T08:28:01;5.55;;;4.45;;
15451;SDS011;7827;53.594;9.938;2022-10-17T08:30:29;6.38;;;4.22;;
15451;SDS011;7827;53.594;9.938;2022-10-17T08:32:57;7.35;;;4.28;;
15451;SDS011;7827;53.594;9.938;2022-10-17T08:35:25;5.47;;;4.43;;
15451;SDS011;7827;53.594;9.938;2022-10-17T08:37:54;10.02;;;4.50;;
15451;SDS011;7827;53.594;9.938;2022-10-17T08:40:25;10.98;;;4.28;;
15451;SDS011;7827;53.594;9.938;2022-10-17T08:43:04;8.43;;;5.10;;
15451;SDS011;7827;53.594;9.938;2022-10-17T08:46:01;7.47;;;4.45;;
15451;SDS011;7827;53.594;9.938;2022-10-17T08:48:33;8.40;;;4.45;;
15451;SDS011;7827;53.594;9.938;2022-10-17T08:51:12;8.98;;;5.10;;
15451;SDS011;7827;53.594;9.938;2022-10-17T08:53:47;7.80;;;4.30;;
15451;SDS011;7827;53.594;9.938;2022-10-17T08:56:22;7.82;;;4.43;;
15451;SDS011;7827;53.594;9.938;2022-10-17T08:59:16;8.48;;;4.88;;
15451;SDS011;7827;53.594;9.938;2022-10-17T09:01:50;7.80;;;4.85;;
15451;SDS011;7827;53.594;9.938;2022-10-17T09:04:37;5.00;;;4.18;;
15451;SDS011;7827;53.594;9.938;2022-10-17T09:07:29;4.95;;;4.30;;
15451;SDS011;7827;53.594;9.938;2022-10-17T09:10:09;5.22;;;4.53;;
15451;SDS011;7827;53.594;9.938;2022-10-17T09:12:46;9.55;;;4.13;;
15451;SDS011;7827;53.594;9.938;2022-10-17T09:15:27;5.80;;;4.40;;
15451;SDS011;7827;53.594;9.938;2022-10-17T09:18:10;6.75;;;4.25;;
15451;SDS011;7827;53.594;9.938;2022-10-17T09:20:48;4.93;;;3.83;;
15451;SDS011;7827;53.594;9.938;2022-10-17T09:23:21;5.50;;;4.00;;
15451;SDS011;7827;53.594;9.938;2022-10-17T09:25:53;4.97;;;3.80;;
15451;SDS011;7827;53.594;9.938;2022-10-17T09:28:26;6.82;;;4.13;;
15451;SDS011;7827;53.594;9.938;2022-10-17T09:31:02;7.28;;;3.78;;
15451;SDS011;7827;53.594;9.938;2022-10-17T09:33:41;6.80;;;4.63;;
15451;SDS011;7827;53.594;9.938;2022-10-17T09:36:24;6.70;;;4.20;;
15451;SDS011;7827;53.594;9.938;2022-10-17T09:39:12;8.73;;;4.00;;
15451;SDS011;7827;53.594;9.938;2022-10-17T09:41:49;10.65;;;4.45;;
15451;SDS011;7827;53.594;9.938;2022-10-17T09:44:29;8.38;;;4.22;;
15451;SDS011;7827;53.594;9.938;2022-10-17T09:47:07;5.32;;;4.22;;
15451;SDS011;7827;53.594;9.938;2022-10-17T09:49:57;6.88;;;4.15;;
15451;SDS011;7827;53.594;9.938;2022-10-17T09:52:32;6.55;;;4.05;;
15451;SDS011;7827;53.594;9.938;2022-10-17T09:55:15;4.50;;;4.10;;
15451;SDS011;7827;53.594;9.938;2022-10-17T09:57:51;11.27;;;4.43;;
15451;SDS011;7827;53.594;9.938;2022-10-17T10:00:23;6.32;;;4.10;;
15451;SDS011;7827;53.594;9.938;2022-10-17T10:03:09;7.38;;;4.00;;
15451;SDS011;7827;53.594;9.938;2022-10-17T10:05:42;4.82;;;3.72;;
15451;SDS011;7827;53.594;9.938;2022-10-17T10:08:27;5.15;;;4.25;;
15451;SDS011;7827;53.594;9.938;2022-10-17T10:11:03;6.22;;;4.50;;
15451;SDS011;7827;53.594;9.938;2022-10-17T10:13:39;6.03;;;4.40;;
15451;SDS011;7827;53.594;9.938;2022-10-17T10:16:13;5.60;;;4.35;;
15451;SDS011;7827;53.594;9.938;2022-10-17T10:18:51;8.13;;;4.03;;
15451;SDS011;7827;53.594;9.938;2022-10-17T10:21:20;5.93;;;4.60;;
15451;SDS011;7827;53.594;9.938;2022-10-17T10:26:40;14.02;;;4.57;;
15451;SDS011;7827;53.594;9.938;2022-10-17T10:29:20;7.47;;;4.93;;
15451;SDS011;7827;53.594;9.938;2022-10-17T10:31:56;11.25;;;4.05;;
15451;SDS011;7827;53.594;9.938;2022-10-17T10:34:36;7.45;;;4.65;;
15451;SDS011;7827;53.594;9.938;2022-10-17T10:37:15;5.15;;;4.18;;
15451;SDS011;7827;53.594;9.938;2022-10-17T10:39:48;6.60;;;4.40;;
15451;SDS011;7827;53.594;9.938;2022-10-17T10:42:20;10.32;;;4.53;;
15451;SDS011;7827;53.594;9.938;2022-10-17T10:44:54;7.55;;;4.63;;
15451;SDS011;7827;53.594;9.938;2022-10-17T10:47:29;7.13;;;5.03;;
15451;SDS011;7827;53.594;9.938;2022-10-17T10:50:07;6.60;;;4.80;;
15451;SDS011;7827;53.594;9.938;2022-10-17T10:52:49;6.65;;;4.80;;
15451;SDS011;7827;53.594;9.938;2022-10-17T10:55:31;8.98;;;4.45;;
15451;SDS011;7827;53.594;9.938;2022-10-17T10:58:08;7.07;;;5.15;;
15451;SDS011;7827;53.594;9.938;2022-10-17T11:00:59;10.43;;;4.40;;
15451;SDS011;7827;53.594;9.938;2022-10-17T11:03:34;6.20;;;4.40;;
15451;SDS011;7827;53.594;9.938;2022-10-17T11:06:13;7.95;;;4.32;;
15451;SDS011;7827;53.594;9.938;2022-10-17T11:08:51;8.70;;;4.20;;
15451;SDS011;7827;53.594;9.938;2022-10-17T11:11:33;9.32;;;4.30;;
15451;SDS011;7827;53.594;9.938;2022-10-17T11:14:08;6.30;;;4.20;;
15451;SDS011;7827;53.594;9.938;2022-10-17T11:16:45;7.07;;;4.50;;
15451;SDS011;7827;53.594;9.938;2022-10-17T11:19:23;6.95;;;4.13;;
15451;SDS011;7827;53.594;9.938;2022-10-17T11:22:04;5.35;;;4.70;;
15451;SDS011;7827;53.594;9.938;2022-10-17T11:24:43;6.68;;;4.13;;
15451;SDS011;7827;53.594;9.938;2022-10-17T11:27:22;5.65;;;4.10;;
15451;SDS011;7827;53.594;9.938;2022-10-17T11:29:52;9.07;;;4.43;;
15451;SDS011;7827;53.594;9.938;2022-10-17T11:32:21;8.23;;;4.50;;
15451;SDS011;7827;53.594;9.938;2022-10-17T11:34:58;5.10;;;3.75;;
15451;SDS011;7827;53.594;9.938;2022-10-17T11:37:34;6.13;;;4.05;;
15451;SDS011;7827;53.594;9.938;2022-10-17T11:40:15;9.43;;;4.30;;
15451;SDS011;7827;53.594;9.938;2022-10-17T11:42:52;7.10;;;4.20;;
15451;SDS011;7827;53.594;9.938;2022-10-17T11:45:27;7.57;;;4.50;;
15451;SDS011;7827;53.594;9.938;2022-10-17T11:48:01;7.82;;;4.22;;
15451;SDS011;7827;53.594;9.938;2022-10-17T11:50:37;5.47;;;4.53;;
15451;SDS011;7827;53.594;9.938;2022-10-17T11:53:37;9.52;;;4.35;;
15451;SDS011;7827;53.594;9.938;2022-10-17T11:56:15;13.98;;;5.15;;
15451;SDS011;7827;53.594;9.938;2022-10-17T11:58:54;8.25;;;4.38;;
15451;SDS011;7827;53.594;9.938;2022-10-17T12:01:36;7.85;;;4.45;;
15451;SDS011;7827;53.594;9.938;2022-10-17T12:04:18;7.57;;;4.53;;
15451;SDS011;7827;53.594;9.938;2022-10-17T12:07:03;8.43;;;4.40;;
15451;SDS011;7827;53.594;9.938;2022-10-17T12:09:44;7.38;;;4.82;;
15451;SDS011;7827;53.594;9.938;2022-10-17T12:12:25;13.07;;;5.22;;
15451;SDS011;7827;53.594;9.938;2022-10-17T12:17:56;8.40;;;5.97;;
15451;SDS011;7827;53.594;9.938;2022-10-17T12:20:29;9.25;;;5.93;;
15451;SDS011;7827;53.594;9.938;2022-10-17T12:23:04;11.00;;;6.80;;
15451;SDS011;7827;53.594;9.938;2022-10-17T12:25:55;8.93;;;6.18;;
15451;SDS011;7827;53.594;9.938;2022-10-17T12:28:30;13.90;;;7.03;;
15451;SDS011;7827;53.594;9.938;2022-10-17T12:31:01;9.48;;;6.38;;
15451;SDS011;7827;53.594;9.938;2022-10-17T12:33:36;7.88;;;6.35;;
15451;SDS011;7827;53.594;9.938;2022-10-17T12:51:25;11.93;;;7.93;;
15451;SDS011;7827;53.594;9.938;2022-10-17T12:54:07;11.38;;;7.68;;
15451;SDS011;7827;53.594;9.938;2022-10-17T12:56:40;11.77;;;8.23;;
15451;SDS011;7827;53.594;9.938;2022-10-17T12:59:13;12.45;;;7.72;;
15451;SDS011;7827;53.594;9.938;2022-10-17T13:01:47;11.30;;;8.55;;
15451;SDS011;7827;53.594;9.938;2022-10-17T13:04:21;15.85;;;8.32;;
15451;SDS011;7827;53.594;9.938;2022-10-17T13:06:51;10.13;;;8.48;;
15451;SDS011;7827;53.594;9.938;2022-10-17T13:09:24;12.95;;;8.70;;
15451;SDS011;7827;53.594;9.938;2022-10-17T13:11:56;13.93;;;7.95;;
15451;SDS011;7827;53.594;9.938;2022-10-17T13:14:29;14.25;;;8.60;;
15451;SDS011;7827;53.594;9.938;2022-10-17T13:17:00;16.63;;;8.75;;
15451;SDS011;7827;53.594;9.938;2022-10-17T13:19:38;14.02;;;9.05;;
15451;SDS011;7827;53.594;9.938;2022-10-17T13:22:10;19.13;;;9.68;;
15451;SDS011;7827;53.594;9.938;2022-10-17T13:24:44;14.23;;;9.70;;
15451;SDS011;7827;53.594;9.938;2022-10-17T13:27:24;16.48;;;9.50;;
15451;SDS011;7827;53.594;9.938;2022-10-17T13:29:59;13.57;;;9.25;;
15451;SDS011;7827;53.594;9.938;2022-10-17T13:32:54;13.07;;;10.20;;
15451;SDS011;7827;53.594;9.938;2022-10-17T13:35:24;17.63;;;10.38;;
15451;SDS011;7827;53.594;9.938;2022-10-17T13:38:16;12.23;;;9.65;;
15451;SDS011;7827;53.594;9.938;2022-10-17T13:40:49;14.05;;;10.10;;
15451;SDS011;7827;53.594;9.938;2022-10-17T13:43:26;11.60;;;9.38;;
15451;SDS011;7827;53.594;9.938;2022-10-17T13:45:59;13.10;;;10.70;;
15451;SDS011;7827;53.594;9.938;2022-10-17T13:48:51;18.15;;;10.20;;
15451;SDS011;7827;53.594;9.938;2022-10-17T13:51:19;20.08;;;10.65;;
15451;SDS011;7827;53.594;9.938;2022-10-17T13:53:49;11.85;;;10.15;;
15451;SDS011;7827;53.594;9.938;2022-10-17T13:56:18;13.38;;;9.85;;
15451;SDS011;7827;53.594;9.938;2022-10-17T13:58:56;12.23;;;10.27;;
15451;SDS011;7827;53.594;9.938;2022-10-17T14:01:30;14.73;;;11.02;;
15451;SDS011;7827;53.594;9.938;2022-10-17T14:03:58;15.85;;;11.35;;
15451;SDS011;7827;53.594;9.938;2022-10-17T14:06:35;15.98;;;10.38;;
15451;SDS011;7827;53.594;9.938;2022-10-17T14:09:16;11.80;;;9.95;;
15451;SDS011;7827;53.594;9.938;2022-10-17T14:11:57;14.50;;;10.45;;
15451;SDS011;7827;53.594;9.938;2022-10-17T14:14:28;17.20;;;11.75;;
15451;SDS011;7827;53.594;9.938;2022-10-17T14:17:21;14.90;;;9.90;;
15451;SDS011;7827;53.594;9.938;2022-10-17T14:19:54;17.45;;;10.43;;
15451;SDS011;7827;53.594;9.938;2022-10-17T14:22:49;12.75;;;10.23;;
15451;SDS011;7827;53.594;9.938;2022-10-17T14:25:38;15.38;;;10.88;;
15451;SDS011;7827;53.594;9.938;2022-10-17T14:28:13;15.23;;;11.02;;
15451;SDS011;7827;53.594;9.938;2022-10-17T14:30:44;17.42;;;11.20;;
15451;SDS011;7827;53.594;9.938;2022-10-17T14:33:25;17.83;;;11.45;;
15451;SDS011;7827;53.594;9.938;2022-10-17T14:35:58;13.82;;;11.18;;
15451;SDS011;7827;53.594;9.938;2022-10-17T14:38:29;14.43;;;11.48;;
15451;SDS011;7827;53.594;9.938;2022-10-17T14:40:59;15.38;;;12.43;;
15451;SDS011;7827;53.594;9.938;2022-10-17T14:43:53;20.58;;;12.15;;
15451;SDS011;7827;53.594;9.938;2022-10-17T14:46:24;18.48;;;12.50;;
15451;SDS011;7827;53.594;9.938;2022-10-17T14:48:55;13.52;;;11.68;;
15451;SDS011;7827;53.594;9.938;2022-10-17T14:54:53;17.60;;;11.90;;
15451;SDS011;7827;53.594;9.938;2022-10-17T14:57:23;17.50;;;12.25;;
15451;SDS011;7827;53.594;9.938;2022-10-17T15:00:01;15.18;;;12.38;;
15451;SDS011;7827;53.594;9.938;2022-10-17T15:02:30;19.77;;;12.27;;
15451;SDS011;7827;53.594;9.938;2022-10-17T15:05:00;14.32;;;12.57;;
15451;SDS011;7827;53.594;9.938;2022-10-17T15:07:28;16.15;;;12.52;;
15451;SDS011;7827;53.594;9.938;2022-10-17T15:09:56;18.55;;;12.60;;
15451;SDS011;7827;53.594;9.938;2022-10-17T15:12:24;14.45;;;12.70;;
15451;SDS011;7827;53.594;9.938;2022-10-17T15:14:53;19.17;;;13.45;;
15451;SDS011;7827;53.594;9.938;2022-10-17T15:17:22;18.38;;;13.10;;
15451;SDS011;7827;53.594;9.938;2022-10-17T15:19:52;17.60;;;13.30;;
15451;SDS011;7827;53.594;9.938;2022-10-17T15:22:22;15.57;;;13.73;;
15451;SDS011;7827;53.594;9.938;2022-10-17T15:24:51;16.05;;;13.52;;
15451;SDS011;7827;53.594;9.938;2022-10-17T15:27:19;14.35;;;12.80;;
15451;SDS011;7827;53.594;9.938;2022-10-17T15:29:51;19.17;;;13.65;;
15451;SDS011;7827;53.594;9.938;2022-10-17T15:32:19;18.55;;;14.13;;
15451;SDS011;7827;53.594;9.938;2022-10-17T15:34:47;16.88;;;13.98;;
15451;SDS011;7827;53.594;9.938;2022-10-17T15:37:16;18.38;;;14.07;;
15451;SDS011;7827;53.594;9.938;2022-10-17T15:39:49;18.63;;;15.43;;
15451;SDS011;7827;53.594;9.938;2022-10-17T15:42:20;17.38;;;14.45;;
15451;SDS011;7827;53.594;9.938;2022-10-17T15:44:52;19.80;;;14.50;;
15451;SDS011;7827;53.594;9.938;2022-10-17T15:47:21;19.42;;;15.07;;
15451;SDS011;7827;53.594;9.938;2022-10-17T15:49:54;21.65;;;15.73;;
15451;SDS011;7827;53.594;9.938;2022-10-17T15:52:23;17.58;;;14.85;;
15451;SDS011;7827;53.594;9.938;2022-10-17T15:54:53;19.63;;;15.82;;
15451;SDS011;7827;53.594;9.938;2022-10-17T15:57:26;18.75;;;15.35;;
15451;SDS011;7827;53.594;9.938;2022-10-17T15:59:58;18.08;;;15.52;;
15451;SDS011;7827;53.594;9.938;2022-10-17T16:02:27;23.77;;;16.17;;